Time;durP1;ratioP1;P1;durP2;ratioP2;P2;SDS_P1;SDS_P2;PMS_P1;PMS_P2;Temp;Humidity;BMP_temperature;BMP_pressure;BME280_temperature;BME280_humidity;BME280_pressure;Samples;Min_cycle;Max_cycle;Signal;HPM_P1;HPM_P2
2022/03/06 02:57:35;;;;;;;;;78.25;59.50;;;;;9.76;100.00;101713.00;6295740;22;47280;-96
2022/03/06 03:10:42;;;;;;;;;72.75;55.50;;;;;9.78;100.00;101719.25;6280923;22;44973;-96
2022/03/06 03:13:45;;;;;;;;;78.50;59.75;;;;;9.64;100.00;101713.13;6239306;22;44865;-96
2022/03/06 03:16:53;;;;;;;;;63.50;53.00;;;;;9.74;100.00;101731.22;6299658;22;44865;-96
2022/03/06 03:19:50;;;;;;;;;76.00;57.00;;;;;9.56;100.00;101712.63;6272269;22;45579;-96
2022/03/06 03:22:37;;;;;;;;;71.75;56.00;;;;;9.55;100.00;101714.31;6297847;22;44866;-96
2022/03/06 03:25:29;;;;;;;;;80.25;61.25;;;;;9.45;100.00;101699.72;6254451;22;44833;-96
2022/03/06 03:30:34;;;;;;;;;75.00;56.75;;;;;9.44;100.00;101717.94;6288106;22;45444;-96
2022/03/06 03:33:02;;;;;;;;;76.25;58.75;;;;;9.33;100.00;101714.66;6260674;22;45086;-96
2022/03/06 03:35:37;;;;;;;;;72.25;53.50;;;;;9.45;100.00;101744.28;6270271;22;44808;-96
2022/03/06 03:38:10;;;;;;;;;75.75;55.75;;;;;9.33;100.00;101736.47;6262656;22;44843;-96
2022/03/06 03:51:21;;;;;;;;;77.25;56.50;;;;;9.08;100.00;101727.00;6257164;22;46430;-96
2022/03/06 03:53:46;;;;;;;;;76.25;56.50;;;;;9.19;100.00;101755.63;6380127;22;44742;-96
2022/03/06 03:56:12;;;;;;;;;78.50;59.25;;;;;9.05;100.00;101740.78;6351146;22;44753;-96
2022/03/06 03:58:38;;;;;;;;;76.00;56.75;;;;;8.97;100.00;101741.09;6353210;22;44811;-96
2022/03/06 04:01:04;;;;;;;;;69.50;53.25;;;;;8.95;100.00;101743.59;6321316;22;45603;-96
2022/03/06 04:03:41;;;;;;;;;79.75;54.75;;;;;9.13;100.00;101771.81;6348345;22;45430;-96
2022/03/06 04:06:10;;;;;;;;;75.75;57.75;;;;;9.00;100.00;101749.13;6359861;22;45046;-96
2022/03/06 04:11:26;;;;;;;;;75.75;59.00;;;;;8.92;100.00;101746.91;6294367;22;46905;-96
2022/03/06 04:19:33;;;;;;;;;77.25;60.00;;;;;9.04;100.00;101785.22;6318126;22;44827;-96
2022/03/06 04:22:22;;;;;;;;;72.25;51.50;;;;;8.98;100.00;101790.03;6328329;22;45482;-96
2022/03/06 04:24:59;;;;;;;;;71.25;56.25;;;;;8.82;100.00;101760.16;6324344;22;44822;-96
2022/03/06 04:27:59;;;;;;;;;72.00;58.00;;;;;8.74;100.00;101757.00;6297327;22;44764;-96
2022/03/06 04:30:32;;;;;;;;;74.75;57.25;;;;;8.88;100.00;101780.63;6331068;22;44812;-96
2022/03/06 04:33:27;;;;;;;;;;;;;;;;;;;;;
2022/03/06 04:35:53;;;;;;;;;71.00;57.75;;;;;8.66;100.00;101761.72;6292640;22;72817;-96
2022/03/06 04:38:23;;;;;;;;;67.50;54.75;;;;;8.70;100.00;101770.69;6293622;22;44727;-96
2022/03/06 04:41:01;;;;;;;;;68.00;54.75;;;;;8.68;100.00;101765.38;6226237;22;44906;-96
2022/03/06 04:43:32;;;;;;;;;71.50;56.50;;;;;8.61;100.00;101768.34;6230250;22;45513;-96
2022/03/06 04:46:04;;;;;;;;;71.00;57.75;;;;;8.66;100.00;101781.78;6230104;22;44809;-96
2022/03/06 04:48:32;;;;;;;;;77.00;57.00;;;;;8.57;100.00;101769.81;6203875;22;44830;-96
2022/03/06 04:51:04;;;;;;;;;73.50;56.50;;;;;8.76;100.00;101804.25;6232835;22;44923;-96
2022/03/06 04:53:49;;;;;;;;;71.50;53.75;;;;;8.51;100.00;101777.22;6232386;22;45841;-96
2022/03/06 04:56:17;;;;;;;;;77.50;58.00;;;;;8.56;100.00;101794.16;6317456;22;44746;-96
2022/03/06 04:58:43;;;;;;;;;72.50;54.00;;;;;8.45;100.00;101785.53;6321027;22;45235;-96
2022/03/06 05:01:14;;;;;;;;;76.75;57.25;;;;;8.53;100.00;101780.84;6322704;22;44802;-96
2022/03/06 05:03:48;;;;;;;;;75.25;57.00;;;;;8.47;100.00;101786.59;6302447;22;45533;-96
2022/03/06 05:06:26;;;;;;;;;73.75;55.25;;;;;8.52;100.00;101781.66;6357280;22;44732;-96
2022/03/06 05:09:36;;;;;;;;;73.50;56.00;;;;;8.51;100.00;101774.59;6359423;22;45171;-96
2022/03/06 05:17:19;;;;;;;;;81.50;59.75;;;;;8.37;100.00;101789.34;6325718;22;45289;-96
2022/03/06 05:20:16;;;;;;;;;;;;;;;;;;;;;
2022/03/06 05:23:13;;;;;;;;;73.25;59.00;;;;;8.35;100.00;101786.59;6298639;22;70557;-96
2022/03/06 05:36:10;;;;;;;;;76.25;57.50;;;;;8.32;100.00;101803.81;6293570;22;46820;-96
2022/03/06 05:38:36;;;;;;;;;68.75;54.75;;;;;8.19;100.00;101800.31;6264793;22;44702;-96
2022/03/06 05:41:09;;;;;;;;;74.25;57.25;;;;;8.16;100.00;101795.75;6266589;22;44669;-96
2022/03/06 05:43:41;;;;;;;;;73.50;57.25;;;;;8.23;100.00;101788.34;6263799;22;44732;-96
2022/03/06 05:46:06;;;;;;;;;69.50;56.25;;;;;8.33;100.00;101818.69;6239326;22;46963;-96
2022/03/06 05:48:34;;;;;;;;;70.00;55.50;;;;;8.19;100.00;101802.00;6262895;22;44820;-96
2022/03/06 05:51:18;;;;;;;;;73.75;56.50;;;;;8.42;100.00;101829.81;6263635;22;44797;-96
2022/03/06 05:54:58;;;;;;;;;;;;;;;;;;;;;
2022/03/06 06:01:29;;;;;;;;;73.00;57.75;;;;;8.22;100.00;101810.97;6144653;23;44723;-96
2022/03/06 06:04:35;;;;;;;;;70.25;56.25;;;;;8.22;100.00;101813.56;6009103;23;44781;-96
2022/03/06 06:07:26;;;;;;;;;67.00;55.00;;;;;8.33;100.00;101837.00;6053741;23;45351;-96
2022/03/06 06:09:54;;;;;;;;;74.00;58.25;;;;;8.09;100.00;101818.75;6118930;22;45492;-96
2022/03/06 06:16:07;;;;;;;;;75.75;59.75;;;;;8.16;100.00;101842.84;6361554;22;44851;-96
2022/03/06 06:18:37;;;;;;;;;74.50;57.25;;;;;7.99;100.00;101825.00;6292328;22;45220;-96
2022/03/06 06:21:04;;;;;;;;;74.50;61.25;;;;;8.03;100.00;101833.19;6319840;22;45674;-96
2022/03/06 06:23:34;;;;;;;;;81.75;60.50;;;;;8.01;100.00;101826.94;6293176;22;46083;-96
2022/03/06 06:26:06;;;;;;;;;79.00;58.75;;;;;8.04;100.00;101853.28;6322203;22;44827;-96
2022/03/06 06:28:31;;;;;;;;;76.25;58.25;;;;;7.91;100.00;101829.66;6266199;22;46910;-96
2022/03/06 06:33:28;;;;;;;;;78.50;55.75;;;;;7.86;100.00;101824.06;6384051;22;44666;-96
2022/03/06 06:36:00;;;;;;;;;73.00;59.00;;;;;8.03;100.00;101853.19;6357984;22;44654;-96
2022/03/06 06:38:29;;;;;;;;;87.25;62.25;;;;;7.89;100.00;101841.69;6382166;22;44875;-96
2022/03/06 06:40:58;;;;;;;;;81.50;60.00;;;;;7.90;100.00;101831.38;6381199;22;45605;-96
2022/03/06 06:43:31;;;;;;;;;74.25;59.25;;;;;7.93;100.00;101839.44;6380142;22;45161;-96
2022/03/06 06:46:02;;;;;;;;;71.50;56.00;;;;;7.99;100.00;101840.69;6381231;22;44773;-96
2022/03/06 06:48:29;;;;;;;;;79.50;58.00;;;;;7.98;100.00;101845.00;6383693;22;45164;-96
2022/03/06 06:50:55;;;;;;;;;75.50;59.50;;;;;7.98;100.00;101838.88;6345360;22;46468;-96
2022/03/06 07:01:07;;;;;;;;;78.75;59.50;;;;;8.13;100.00;101870.47;6297257;22;46805;-94
2022/03/06 07:03:32;;;;;;;;;80.00;60.75;;;;;8.08;100.00;101867.50;6332368;22;45303;-91
2022/03/06 07:05:58;;;;;;;;;82.25;62.00;;;;;8.08;100.00;101866.59;6305106;22;45363;-92
2022/03/06 07:08:24;;;;;;;;;80.75;62.00;;;;;8.08;100.00;101875.34;6334087;22;45777;-92
2022/03/06 07:10:50;;;;;;;;;71.00;56.75;;;;;8.09;100.00;101871.94;6338086;22;47909;-91
2022/03/06 07:13:15;;;;;;;;;75.75;59.00;;;;;8.11;100.00;101875.59;6306646;22;45405;-91
2022/03/06 07:15:41;;;;;;;;;77.00;57.50;;;;;8.11;100.00;101888.66;6331712;22;45438;-92
2022/03/06 07:18:06;;;;;;;;;79.25;60.50;;;;;8.18;100.00;101890.03;6333906;22;45259;-91
2022/03/06 07:20:32;;;;;;;;;77.50;58.50;;;;;8.27;100.00;101888.06;6334394;22;45474;-91
2022/03/06 07:22:57;;;;;;;;;72.50;55.25;;;;;8.32;100.00;101885.81;6334323;22;45379;-93
2022/03/06 07:25:23;;;;;;;;;80.00;60.75;;;;;8.36;100.00;101898.31;6334114;22;45310;-90
2022/03/06 07:27:48;;;;;;;;;80.75;60.50;;;;;8.42;100.00;101896.94;6339918;22;45507;-91
2022/03/06 07:30:14;;;;;;;;;77.50;59.75;;;;;8.48;100.00;101895.66;6360556;22;47113;-92
2022/03/06 07:32:44;;;;;;;;;86.25;60.00;;;;;8.53;100.00;101908.19;6362647;22;44631;-91
2022/03/06 07:35:10;;;;;;;;;79.25;61.25;;;;;8.60;100.00;101907.88;6343661;22;45185;-93
2022/03/06 07:37:36;;;;;;;;;83.00;61.75;;;;;8.70;100.00;101906.81;6311652;22;45590;-91
2022/03/06 07:40:02;;;;;;;;;81.50;61.75;;;;;8.78;100.00;101917.84;6305372;22;47323;-91
2022/03/06 07:42:28;;;;;;;;;85.00;63.75;;;;;8.81;100.00;101918.97;6304655;22;45821;-92
2022/03/06 07:44:53;;;;;;;;;78.25;58.50;;;;;8.89;100.00;101929.97;6331699;22;45192;-93
2022/03/06 07:47:18;;;;;;;;;75.75;59.75;;;;;8.92;100.00;101924.06;6334582;22;45308;-94
2022/03/06 07:49:44;;;;;;;;;75.00;60.00;;;;;8.99;100.00;101923.72;6334277;22;48762;-90
2022/03/06 07:52:09;;;;;;;;;80.50;60.75;;;;;9.08;100.00;101936.53;6304816;22;45399;-90
2022/03/06 07:54:35;;;;;;;;;76.50;58.75;;;;;9.11;100.00;101935.84;6312293;22;46017;-90
2022/03/06 07:57:00;;;;;;;;;80.50;61.75;;;;;9.04;100.00;101935.44;6305045;22;45482;-90
2022/03/06 07:59:25;;;;;;;;;84.00;60.00;;;;;8.99;100.00;101941.13;6332930;22;51540;-91
2022/03/06 08:01:54;;;;;;;;;77.00;57.00;;;;;9.04;100.00;101945.91;6329779;22;45657;-91
2022/03/06 08:04:20;;;;;;;;;73.25;57.00;;;;;9.03;100.00;101948.41;6334479;22;45488;-90
2022/03/06 08:06:47;;;;;;;;;82.25;59.75;;;;;9.09;100.00;101943.59;6333990;22;45182;-90
2022/03/06 08:09:12;;;;;;;;;72.50;57.75;;;;;9.13;100.00;101950.88;6305516;22;47091;-91
2022/03/06 08:11:37;;;;;;;;;77.00;58.00;;;;;9.13;100.00;101949.94;6325888;22;45318;-91
2022/03/06 08:14:03;;;;;;;;;75.25;59.00;;;;;9.21;100.00;101956.66;6310083;22;45309;-89
2022/03/06 08:16:28;;;;;;;;;67.75;56.50;;;;;9.24;100.00;101961.19;6330833;22;45536;-93
2022/03/06 08:18:53;;;;;;;;;75.25;57.00;;;;;9.28;100.00;101957.97;6334471;22;45411;-88
2022/03/06 08:21:19;;;;;;;;;76.00;59.00;;;;;9.33;100.00;101960.94;6334941;22;45346;-90
2022/03/06 08:23:44;;;;;;;;;84.75;63.00;;;;;9.37;100.00;101962.97;6335003;22;45272;-89
2022/03/06 08:26:09;;;;;;;;;64.75;53.00;;;;;9.44;100.00;101961.69;6333917;22;45413;-90
2022/03/06 08:28:35;;;;;;;;;76.50;57.00;;;;;9.50;100.00;101964.75;6305127;22;56778;-89
2022/03/06 08:31:00;;;;;;;;;78.50;58.00;;;;;9.59;100.00;101964.44;6340989;22;45234;-92
2022/03/06 08:33:25;;;;;;;;;73.75;56.00;;;;;9.68;100.00;101979.94;6349882;22;50174;-90
2022/03/06 08:35:52;;;;;;;;;77.75;59.00;;;;;9.69;100.00;101968.66;6343452;22;45236;-90
2022/03/06 08:38:18;;;;;;;;;73.75;56.25;;;;;9.71;100.00;101969.66;6318099;22;45955;-90
2022/03/06 08:40:43;;;;;;;;;74.75;58.00;;;;;9.72;100.00;101963.59;6316705;22;45359;-89
2022/03/06 08:43:08;;;;;;;;;74.00;57.75;;;;;9.72;100.00;101967.13;6334590;22;45401;-91
2022/03/06 08:45:34;;;;;;;;;74.00;57.75;;;;;9.79;100.00;101971.06;6362330;22;44700;-91
2022/03/06 08:47:59;;;;;;;;;71.25;55.50;;;;;9.87;100.00;101981.19;6357041;22;47139;-90
2022/03/06 08:50:24;;;;;;;;;72.75;55.50;;;;;9.87;100.00;101974.22;6352786;22;45659;-91
2022/03/06 08:52:50;;;;;;;;;68.75;56.75;;;;;9.92;100.00;101972.81;6356008;22;45642;-89
2022/03/06 08:55:15;;;;;;;;;81.25;61.50;;;;;10.01;100.00;101966.38;6355620;22;45295;-89
2022/03/06 08:57:40;;;;;;;;;73.00;56.25;;;;;10.02;100.00;101973.47;6355917;22;47082;-89
2022/03/06 09:00:08;;;;;;;;;68.00;53.75;;;;;10.10;100.00;101979.22;6358842;22;44656;-89
2022/03/06 09:02:33;;;;;;;;;77.75;59.50;;;;;10.16;100.00;101984.88;6354824;22;45268;-89
2022/03/06 09:04:59;;;;;;;;;72.75;55.25;;;;;10.23;100.00;101978.34;6352829;22;46903;-89
2022/03/06 09:07:24;;;;;;;;;75.25;58.00;;;;;10.35;100.00;101983.47;6354096;22;53643;-88
2022/03/06 09:09:49;;;;;;;;;69.00;55.50;;;;;10.46;100.00;101979.81;6350255;22;45325;-90
2022/03/06 09:12:15;;;;;;;;;69.00;54.50;;;;;10.55;100.00;101983.91;6327396;22;45920;-90
2022/03/06 09:14:40;;;;;;;;;75.50;58.25;;;;;10.64;100.00;101984.53;6322202;22;45285;-90
2022/03/06 09:17:07;;;;;;;;;78.00;60.25;;;;;10.69;100.00;101980.47;6345372;22;46504;-92
2022/03/06 09:19:32;;;;;;;;;68.75;53.25;;;;;10.77;100.00;101982.69;6334983;22;45771;-91
2022/03/06 09:21:58;;;;;;;;;65.50;51.25;;;;;10.80;100.00;101988.13;6335286;22;45404;-91
2022/03/06 09:24:23;;;;;;;;;66.25;52.25;;;;;10.83;100.00;101996.19;6331058;22;45710;-91
2022/03/06 09:26:48;;;;;;;;;62.50;52.50;;;;;10.87;100.00;101984.19;6329977;22;46223;-90
2022/03/06 09:29:14;;;;;;;;;65.75;53.75;;;;;10.92;100.00;101978.44;6303626;22;46599;-90
2022/03/06 09:31:43;;;;;;;;;68.75;55.00;;;;;11.03;100.00;101983.47;6333577;22;45268;-91
2022/03/06 09:34:08;;;;;;;;;62.25;51.75;;;;;11.12;100.00;101981.41;6349509;22;45327;-91
2022/03/06 09:36:35;;;;;;;;;70.75;54.00;;;;;11.14;100.00;101985.03;6330317;22;47551;-94
2022/03/06 09:39:00;;;;;;;;;68.00;50.00;;;;;11.20;100.00;101984.50;6331009;22;45268;-94
2022/03/06 09:41:27;;;;;;;;;60.00;47.75;;;;;11.28;100.00;101993.78;6360225;22;44706;-93
2022/03/06 09:43:56;;;;;;;;;70.00;53.50;;;;;11.39;100.00;101999.69;6331489;22;44892;-93
2022/03/06 09:46:23;;;;;;;;;64.75;51.50;;;;;11.43;100.00;101997.25;6331555;22;46279;-93
2022/03/06 09:48:49;;;;;;;;;71.00;56.00;;;;;11.50;100.00;101999.47;6332716;22;44680;-92
2022/03/06 09:51:15;;;;;;;;;60.50;48.75;;;;;11.54;100.00;101996.22;6358297;22;44657;-95
2022/03/06 09:53:40;;;;;;;;;63.50;51.50;;;;;11.62;100.00;101997.59;6303837;22;45285;-95
2022/03/06 09:56:06;;;;;;;;;69.25;54.75;;;;;11.70;100.00;102007.69;6305170;22;47061;-94
2022/03/06 09:58:32;;;;;;;;;63.75;49.75;;;;;11.72;100.00;102006.97;6306387;22;45280;-95
2022/03/06 10:00:57;;;;;;;;;65.50;48.25;;;;;11.75;100.00;102008.84;6332899;22;45293;-95
2022/03/06 10:03:24;;;;;;;;;68.25;50.25;;;;;11.76;100.00;102012.38;6312452;22;45585;-95
2022/03/06 10:05:50;;;;;;;;;59.50;45.75;;;;;11.79;100.00;102007.31;6332444;22;46326;-94
2022/03/06 10:08:17;;;;;;;;;65.50;50.75;;;;;11.87;100.00;102006.06;6331015;22;45503;-93
2022/03/06 10:10:44;;;;;;;;;66.25;49.00;;;;;11.91;100.00;102008.06;6304649;22;45449;-92
2022/03/06 10:13:31;;;;;;;;;52.75;45.75;;;;;12.06;100.00;102000.19;6333905;22;45355;-94
2022/03/06 10:15:58;;;;;;;;;62.50;48.50;;;;;12.01;100.00;102006.00;6332274;22;45562;-94
2022/03/06 10:18:24;;;;;;;;;59.25;45.00;;;;;12.03;100.00;102002.66;6306795;22;46188;-92
2022/03/06 10:20:49;;;;;;;;;52.75;44.00;;;;;12.10;100.00;102003.91;6333856;22;45629;-92
2022/03/06 10:23:25;;;;;;;;;57.75;45.50;;;;;12.24;100.00;101998.59;6336662;22;45548;-94
2022/03/06 10:26:06;;;;;;;;;59.75;49.00;;;;;12.33;100.00;101995.56;6336131;22;45655;-94
2022/03/06 10:28:42;;;;;;;;;52.00;43.25;;;;;12.44;100.00;102004.09;6345365;22;45265;-94
2022/03/06 10:31:07;;;;;;;;;60.00;45.50;;;;;12.44;100.00;101998.84;6336498;22;45229;-92
2022/03/06 10:33:33;;;;;;;;;54.50;44.25;;;;;12.50;100.00;102004.44;6331250;22;45643;-93
2022/03/06 10:36:01;;;;;;;;;56.00;44.75;;;;;12.57;100.00;101996.09;6337839;22;46413;-94
2022/03/06 10:38:32;;;;;;;;;55.25;43.50;;;;;12.72;100.00;101996.06;6334749;22;45394;-93
2022/03/06 10:41:13;;;;;;;;;56.50;41.00;;;;;12.76;100.00;101998.84;6333336;22;45288;-94
2022/03/06 10:43:38;;;;;;;;;53.25;40.00;;;;;12.76;100.00;101998.84;6335795;22;45741;-93
2022/03/06 10:46:11;;;;;;;;;47.50;38.75;;;;;12.87;100.00;101996.81;6335764;22;45797;-94
2022/03/06 10:48:37;;;;;;;;;50.25;41.25;;;;;12.87;100.00;102000.38;6307097;22;45471;-93
2022/03/06 10:51:06;;;;;;;;;48.00;36.75;;;;;12.94;100.00;102005.16;6306025;22;45406;-93
2022/03/06 10:53:32;;;;;;;;;47.00;39.25;;;;;12.96;100.00;102007.91;6333850;22;45243;-92
2022/03/06 10:56:14;;;;;;;;;43.75;38.00;;;;;13.08;100.00;101994.50;6332525;22;45387;-94
2022/03/06 10:58:45;;;;;;;;;41.25;33.50;;;;;13.06;100.00;102010.25;6334793;22;45353;-92
2022/03/06 11:01:11;;;;;;;;;37.50;30.75;;;;;12.99;100.00;102007.16;6334429;22;45333;-94
2022/03/06 11:03:38;;;;;;;;;32.00;30.50;;;;;13.00;100.00;102001.06;6335535;22;45312;-94
2022/03/06 11:06:07;;;;;;;;;40.25;30.00;;;;;13.00;100.00;101988.78;6334812;22;45355;-92
2022/03/06 11:08:32;;;;;;;;;32.50;29.25;;;;;13.02;100.00;101994.13;6341776;22;45291;-92
2022/03/06 11:10:59;;;;;;;;;36.50;32.75;;;;;13.17;100.00;101991.44;6338897;22;45313;-93
2022/03/06 11:13:27;;;;;;;;;34.25;26.50;;;;;13.36;100.00;101987.16;6338140;22;45283;-94
2022/03/06 11:15:53;;;;;;;;;39.00;33.75;;;;;13.41;100.00;101989.25;6345221;22;45359;-95
2022/03/06 11:18:18;;;;;;;;;28.50;25.00;;;;;13.44;100.00;101995.50;6334243;22;44748;-95
2022/03/06 11:20:45;;;;;;;;;31.00;25.75;;;;;13.40;100.00;101994.44;6361147;22;44743;-94
2022/03/06 11:23:37;;;;;;;;;35.75;27.50;;;;;13.42;100.00;101998.06;6321682;22;45418;-94
2022/03/06 11:26:17;;;;;;;;;27.00;25.75;;;;;13.41;100.00;101994.50;6322351;22;46880;-89
2022/03/06 11:29:22;;;;;;;;;18.75;18.75;;;;;13.41;100.00;101990.97;6320543;22;45345;-96
2022/03/06 11:31:52;;;;;;;;;31.25;25.25;;;;;13.38;100.00;101983.78;6317422;22;45281;-91
2022/03/06 11:34:31;;;;;;;;;30.50;24.00;;;;;13.40;100.00;101976.88;6310124;22;45281;-96
2022/03/06 11:36:57;;;;;;;;;27.00;24.25;;;;;13.39;100.00;101984.72;6323985;22;47253;-93
2022/03/06 11:44:47;;;;;;;;;42.50;27.75;;;;;13.58;100.00;101983.97;6368113;22;44852;-96
2022/03/06 11:49:54;;;;;;;;;28.50;26.00;;;;;13.72;100.00;101981.16;6371572;22;45219;-93
2022/03/06 11:52:33;;;;;;;;;30.00;22.25;;;;;13.76;100.00;101979.59;6375942;22;45383;-95
2022/03/06 11:54:59;;;;;;;;;32.75;25.75;;;;;13.78;100.00;101978.84;6378105;22;45153;-96
2022/03/06 11:57:43;;;;;;;;;28.50;26.25;;;;;13.92;100.00;101976.00;6340946;22;47579;-94
2022/03/06 12:00:23;;;;;;;;;31.25;27.25;;;;;13.99;100.00;101974.59;6367919;22;46040;-96
2022/03/06 12:02:51;;;;;;;;;30.50;27.50;;;;;13.96;100.00;101972.72;6368602;22;45264;-91
2022/03/06 12:05:19;;;;;;;;;26.25;25.75;;;;;13.93;100.00;101962.00;6365853;22;45447;-95
2022/03/06 12:07:49;;;;;;;;;23.50;21.75;;;;;14.00;100.00;101957.91;6365661;22;48063;-92
2022/03/06 12:10:17;;;;;;;;;26.25;25.50;;;;;14.03;100.00;101955.44;6365569;22;46087;-94
2022/03/06 12:12:55;;;;;;;;;29.50;25.50;;;;;14.07;100.00;101960.94;6376437;22;45441;-94
2022/03/06 12:15:28;;;;;;;;;30.25;26.25;;;;;14.21;100.00;101960.75;6358360;22;45222;-96
2022/03/06 12:18:02;;;;;;;;;31.25;27.75;;;;;14.32;100.00;101960.38;6376400;22;45252;-96
2022/03/06 12:20:28;;;;;;;;;29.00;24.25;;;;;14.27;100.00;101949.59;6375405;22;45289;-96
2022/03/06 12:22:57;;;;;;;;;31.75;26.00;;;;;14.33;100.00;101949.88;6369699;22;45146;-95
2022/03/06 12:25:29;;;;;;;;;31.25;25.50;;;;;14.38;100.00;101952.78;6369758;22;45371;-94
2022/03/06 12:28:00;;;;;;;;;28.25;26.25;;;;;14.45;100.00;101949.59;6368668;22;46091;-95
2022/03/06 12:30:25;;;;;;;;;32.75;28.00;;;;;14.39;100.00;101944.00;6341207;22;45484;-94
2022/03/06 12:32:51;;;;;;;;;26.50;20.50;;;;;14.47;100.00;101940.00;6367057;22;45768;-96
2022/03/06 12:35:18;;;;;;;;;33.75;27.75;;;;;14.53;100.00;101949.97;6368499;22;45453;-95
2022/03/06 12:37:49;;;;;;;;;33.75;28.00;;;;;14.56;100.00;101944.81;6340214;22;48523;-95
2022/03/06 12:40:17;;;;;;;;;32.50;31.25;;;;;14.60;100.00;101933.56;6344896;22;45323;-95
2022/03/06 12:42:44;;;;;;;;;25.25;25.25;;;;;14.66;100.00;101932.97;6383371;22;45190;-96
2022/03/06 12:45:13;;;;;;;;;32.75;27.75;;;;;14.69;100.00;101932.22;6359628;22;44826;-96
2022/03/06 12:47:40;;;;;;;;;33.50;28.00;;;;;14.73;100.00;101944.72;6386048;22;46480;-96
2022/03/06 12:50:08;;;;;;;;;34.25;29.25;;;;;14.78;100.00;101939.66;6384795;22;45793;-96
2022/03/06 12:52:34;;;;;;;;;28.75;23.00;;;;;14.85;100.00;101941.75;6390855;22;44671;-96
2022/03/06 12:55:04;;;;;;;;;32.25;30.75;;;;;14.92;100.00;101948.28;6386945;22;45116;-96
2022/03/06 12:57:35;;;;;;;;;36.00;30.75;;;;;14.87;100.00;101936.59;6349732;22;47474;-88
2022/03/06 13:00:00;;;;;;;;;25.75;23.75;;;;;14.83;100.00;101946.97;6337333;22;45280;-87
2022/03/06 13:02:26;;;;;;;;;36.25;32.25;;;;;14.75;100.00;101936.03;6368668;22;45248;-87
2022/03/06 13:04:53;;;;;;;;;30.75;26.25;;;;;14.81;100.00;101943.34;6365833;22;45220;-88
2022/03/06 13:07:29;;;;;;;;;33.00;28.50;;;;;14.82;100.00;101946.88;6350731;22;45978;-94
2022/03/06 13:10:00;;;;;;;;;35.50;28.25;;;;;14.75;100.00;101948.34;6384025;22;45293;-95
2022/03/06 13:12:34;;;;;;;;;34.50;29.50;;;;;14.74;100.00;101923.63;6353040;22;45221;-96
2022/03/06 13:15:03;;;;;;;;;31.00;27.25;;;;;14.69;100.00;101926.91;6384554;22;44774;-96
2022/03/06 13:17:29;;;;;;;;;36.25;26.00;;;;;14.69;100.00;101919.88;6386679;22;45238;-96
2022/03/06 13:19:55;;;;;;;;;28.00;23.75;;;;;14.69;100.00;101917.22;6361044;22;44727;-95
2022/03/06 13:22:25;;;;;;;;;35.50;32.50;;;;;14.79;100.00;101923.84;6361961;22;45285;-96
2022/03/06 13:24:53;;;;;;;;;29.25;25.50;;;;;14.80;100.00;101922.13;6360178;22;44896;-95
2022/03/06 13:27:40;;;;;;;;;31.25;25.75;;;;;14.79;100.00;101923.84;6363751;22;48193;-96
2022/03/06 13:30:16;;;;;;;;;32.00;28.00;;;;;14.75;100.00;101917.53;6385893;22;45259;-95
2022/03/06 13:33:03;;;;;;;;;28.75;26.50;;;;;14.72;100.00;101917.38;6387876;22;45224;-96
2022/03/06 13:35:34;;;;;;;;;29.25;27.50;;;;;14.68;100.00;101915.44;6356594;22;45241;-96
2022/03/06 13:38:03;;;;;;;;;29.75;27.00;;;;;14.58;100.00;101913.19;6357222;22;46156;-96
2022/03/06 13:40:34;;;;;;;;;36.75;28.00;;;;;14.51;100.00;101917.25;6382652;22;45130;-96
2022/03/06 13:43:00;;;;;;;;;34.75;27.50;;;;;14.42;100.00;101909.81;6380809;22;45399;-96
2022/03/06 13:45:25;;;;;;;;;35.75;32.00;;;;;14.38;100.00;101910.50;6358506;22;45189;-96
2022/03/06 13:47:57;;;;;;;;;33.75;26.00;;;;;14.40;100.00;101911.47;6382655;22;45152;-96
2022/03/06 13:50:26;;;;;;;;;26.50;23.75;;;;;14.40;100.00;101908.84;6354541;22;45304;-96
2022/03/06 13:52:53;;;;;;;;;34.25;28.00;;;;;14.41;100.00;101905.34;6385465;22;45303;-96
2022/03/06 13:55:21;;;;;;;;;35.75;30.25;;;;;14.40;100.00;101924.69;6357607;22;45090;-96
2022/03/06 13:58:09;;;;;;;;;32.75;26.50;;;;;14.47;100.00;101910.03;6383950;22;45303;-95
2022/03/06 14:00:57;;;;;;;;;32.00;25.75;;;;;14.41;100.00;101906.25;6384399;22;44797;-96
2022/03/06 14:03:38;;;;;;;;;33.00;29.75;;;;;14.38;100.00;101903.47;6389513;22;44639;-96
2022/03/06 14:06:05;;;;;;;;;29.50;27.75;;;;;14.31;100.00;101898.72;6390203;22;44820;-94
2022/03/06 14:08:37;;;;;;;;;25.25;25.25;;;;;14.48;100.00;101896.88;6389691;22;46474;-96
2022/03/06 14:11:04;;;;;;;;;32.25;22.25;;;;;14.55;100.00;101894.53;6392856;22;44825;-95
2022/03/06 14:13:30;;;;;;;;;34.00;30.25;;;;;14.79;100.00;101891.25;6334480;22;45228;-94
2022/03/06 14:16:00;;;;;;;;;35.75;32.00;;;;;15.26;100.00;101875.75;6390400;22;45257;-93
2022/03/06 14:18:32;;;;;;;;;35.75;30.25;;;;;15.86;100.00;101875.59;6334155;22;45192;-95
2022/03/06 14:20:58;;;;;;;;;34.50;30.25;;;;;16.41;100.00;101875.16;6313500;22;45394;-95
2022/03/06 14:23:23;;;;;;;;;36.25;28.50;;;;;17.01;100.00;101865.00;6345477;22;45215;-96
2022/03/06 14:25:49;;;;;;;;;31.75;28.00;;;;;17.67;100.00;101863.78;6316920;22;45291;-94
2022/03/06 14:28:14;;;;;;;;;31.00;27.75;;;;;18.29;100.00;101847.22;6337797;22;47599;-92
2022/03/06 14:30:39;;;;;;;;;32.75;28.50;;;;;19.12;100.00;101853.09;6305094;22;45303;-92
2022/03/06 14:33:10;;;;;;;;;33.25;30.00;;;;;21.18;100.00;101848.94;6304629;22;45346;-93
2022/03/06 14:35:36;;;;;;;;;32.25;29.75;;;;;23.88;100.00;101840.84;6333235;22;45357;-93
2022/03/06 14:38:01;;;;;;;;;32.00;27.75;;;;;26.04;100.00;101848.59;6331779;22;46141;-93
2022/03/06 14:40:26;;;;;;;;;33.50;28.75;;;;;26.44;100.00;101852.97;6332979;22;45447;-95
2022/03/06 14:42:52;;;;;;;;;30.50;26.75;;;;;25.47;96.68;101855.78;6331616;22;45546;-91
2022/03/06 14:45:17;;;;;;;;;34.50;30.00;;;;;24.08;94.92;101858.84;6332680;22;45406;-91
2022/03/06 14:47:42;;;;;;;;;34.25;29.00;;;;;22.78;92.25;101866.59;6331947;22;45672;-92
2022/03/06 14:50:08;;;;;;;;;35.50;28.75;;;;;21.54;88.70;101870.94;6332721;22;45947;-88
2022/03/06 14:52:33;;;;;;;;;31.75;28.50;;;;;20.51;89.81;101860.94;6333509;22;45438;-88
2022/03/06 14:54:59;;;;;;;;;32.00;27.75;;;;;19.73;88.76;101862.69;6303835;22;54385;-91
2022/03/06 14:57:24;;;;;;;;;34.50;29.75;;;;;19.07;90.17;101867.16;6303611;22;68686;-90
2022/03/06 14:59:49;;;;;;;;;36.00;28.75;;;;;18.49;89.71;101860.19;6332072;22;45408;-88
2022/03/06 15:02:15;;;;;;;;;28.25;25.00;;;;;17.96;88.77;101858.53;6340713;22;45318;-91
2022/03/06 15:04:40;;;;;;;;;33.50;28.00;;;;;17.53;88.69;101861.53;6319054;22;45452;-89
2022/03/06 15:07:05;;;;;;;;;35.75;28.75;;;;;17.11;87.34;101868.91;6345074;22;46931;-90
2022/03/06 15:09:31;;;;;;;;;36.75;32.75;;;;;16.73;88.58;101872.84;6353056;22;45332;-92
2022/03/06 15:11:56;;;;;;;;;32.25;30.50;;;;;16.38;89.15;101869.75;6340299;22;57014;-90
2022/03/06 15:14:22;;;;;;;;;31.50;29.50;;;;;16.11;90.83;101859.84;6308632;22;45154;-90
2022/03/06 15:16:47;;;;;;;;;29.00;27.25;;;;;15.94;90.48;101867.97;6333272;22;54885;-88
2022/03/06 15:19:12;;;;;;;;;35.50;27.25;;;;;15.78;90.97;101871.72;6332083;22;45383;-91
2022/03/06 15:21:38;;;;;;;;;35.00;30.75;;;;;15.61;91.45;101862.25;6334436;22;45619;-90
2022/03/06 15:24:04;;;;;;;;;31.75;30.00;;;;;15.49;90.68;101861.69;6332358;22;45460;-90
2022/03/06 15:26:29;;;;;;;;;33.75;29.00;;;;;15.28;90.30;101857.31;6332910;22;46175;-89
2022/03/06 15:28:54;;;;;;;;;26.50;26.25;;;;;15.07;90.38;101867.03;6333656;22;48870;-91
2022/03/06 15:31:20;;;;;;;;;31.00;27.25;;;;;14.83;90.67;101867.66;6330236;22;45939;-89
2022/03/06 15:33:47;;;;;;;;;32.00;27.25;;;;;14.73;91.43;101860.16;6335339;22;45294;-90